createdAt,value
2023-05-12T00:01:37.922Z,2.25
2023-05-12T00:04:40.528Z,1.60
2023-05-12T00:07:42.092Z,1.35
2023-05-12T00:10:43.614Z,2.28
2023-05-12T00:13:45.249Z,2.20
2023-05-12T00:16:51.476Z,3.85
2023-05-12T00:19:53.324Z,1.88
2023-05-12T00:22:54.744Z,2.42
2023-05-12T00:25:56.158Z,1.85
2023-05-12T00:28:57.606Z,3.10
2023-05-12T00:31:59.242Z,1.85
2023-05-12T00:35:00.711Z,1.02
2023-05-12T00:38:02.184Z,2.10
2023-05-12T00:41:04.676Z,2.25
2023-05-12T00:44:06.428Z,1.93
2023-05-12T00:47:08.978Z,2.60
2023-05-12T00:50:10.805Z,1.35
2023-05-12T00:53:13.021Z,1.67
2023-05-12T00:56:16.751Z,1.73
2023-05-12T00:59:18.232Z,1.90
2023-05-12T01:02:19.920Z,2.35
2023-05-12T01:05:21.882Z,2.30
2023-05-12T01:08:24.630Z,1.17
2023-05-12T01:11:26.678Z,2.20
2023-05-12T01:14:28.091Z,3.78
2023-05-12T01:17:35.976Z,2.22
2023-05-12T01:20:38.405Z,3.28
2023-05-12T01:23:44.570Z,2.70
2023-05-12T01:26:46.264Z,1.10
2023-05-12T01:29:49.560Z,6.55
2023-05-12T01:32:53.044Z,1.90
2023-05-12T01:35:54.562Z,1.27
2023-05-12T01:38:56.037Z,1.83
2023-05-12T01:41:57.575Z,2.35
2023-05-12T01:44:59.074Z,3.63
2023-05-12T01:48:01.491Z,2.07
2023-05-12T01:51:07.423Z,4.85
2023-05-12T01:54:09.014Z,1.15
2023-05-12T01:57:12.782Z,1.92
2023-05-12T02:00:14.920Z,1.13
2023-05-12T02:03:16.619Z,1.42
2023-05-12T02:06:18.166Z,2.70
2023-05-12T02:09:19.715Z,1.67
2023-05-12T02:12:21.309Z,1.38
2023-05-12T02:15:24.971Z,2.15
2023-05-12T02:18:26.671Z,2.25
2023-05-12T02:21:28.508Z,3.90
2023-05-12T02:24:30.138Z,1.95
2023-05-12T02:27:32.435Z,1.45
2023-05-12T02:30:34.036Z,1.17
2023-05-12T02:33:35.568Z,1.38
2023-05-12T02:36:37.809Z,1.25
2023-05-12T02:39:40.250Z,2.38
2023-05-12T02:42:43.372Z,1.83
2023-05-12T02:45:44.841Z,1.30
2023-05-12T02:48:46.750Z,2.38
2023-05-12T02:51:49.449Z,1.60
2023-05-12T02:54:50.964Z,2.60
2023-05-12T02:57:53.500Z,3.13
2023-05-12T03:01:06.739Z,1.67
2023-05-12T03:04:11.971Z,3.15
2023-05-12T03:07:13.428Z,2.05
2023-05-12T03:10:17.142Z,2.80
2023-05-12T03:13:18.751Z,2.90
2023-05-12T03:16:20.396Z,2.55
2023-05-12T03:19:22.946Z,2.67
2023-05-12T03:22:25.019Z,2.47
2023-05-12T03:25:26.423Z,2.15
2023-05-12T03:28:28.359Z,3.10
2023-05-12T03:31:29.880Z,1.70
2023-05-12T03:34:31.704Z,1.50
2023-05-12T03:37:34.023Z,1.47
2023-05-12T03:40:35.431Z,4.50
2023-05-12T03:43:37.325Z,3.05
2023-05-12T03:46:38.875Z,3.95
2023-05-12T03:49:40.401Z,1.67
2023-05-12T03:52:41.815Z,3.95
2023-05-12T03:55:43.275Z,3.75
2023-05-12T03:58:47.238Z,4.00
2023-05-12T04:01:50.469Z,3.63
2023-05-12T04:04:52.534Z,3.33
2023-05-12T04:07:53.947Z,2.53
2023-05-12T04:10:58.010Z,3.20
2023-05-12T04:13:59.523Z,2.00
2023-05-12T04:17:00.953Z,2.47
2023-05-12T04:20:02.912Z,4.28
2023-05-12T04:23:04.357Z,4.45
2023-05-12T04:26:06.367Z,3.28
2023-05-12T04:29:08.053Z,2.33
2023-05-12T04:32:09.606Z,3.90
2023-05-12T04:35:11.431Z,3.17
2023-05-12T04:38:13.573Z,3.38
2023-05-12T04:41:15.717Z,3.20
2023-05-12T04:44:17.408Z,3.60
2023-05-12T04:47:19.460Z,4.68
2023-05-12T04:50:21.152Z,3.15
2023-05-12T04:53:22.586Z,7.45
2023-05-12T04:56:24.012Z,2.50
2023-05-12T04:59:25.794Z,2.95
2023-05-12T05:05:31.024Z,3.53
2023-05-12T05:08:32.501Z,3.67
2023-05-12T05:11:34.055Z,3.42
2023-05-12T05:14:36.412Z,3.83
2023-05-12T05:17:38.314Z,7.18
2023-05-12T05:20:45.232Z,5.65
2023-05-12T05:23:48.455Z,7.32
2023-05-12T05:26:50.622Z,6.88
2023-05-12T05:29:52.666Z,2.80
2023-05-12T05:32:54.268Z,7.88
2023-05-12T05:35:56.104Z,6.90
2023-05-12T05:38:57.583Z,9.15
2023-05-12T05:41:59.372Z,10.65
2023-05-12T05:45:00.827Z,12.02
2023-05-12T05:48:02.872Z,11.90
2023-05-12T05:51:06.232Z,10.25
2023-05-12T05:54:08.244Z,8.07
2023-05-12T05:57:09.750Z,4.57
2023-05-12T06:00:12.498Z,8.27
2023-05-12T06:03:21.263Z,8.32
2023-05-12T06:06:23.326Z,6.30
2023-05-12T06:09:24.818Z,7.82
2023-05-12T06:12:26.351Z,7.15
2023-05-12T06:15:27.771Z,11.45
2023-05-12T06:18:29.280Z,6.13
2023-05-12T06:21:32.151Z,9.02
2023-05-12T06:24:33.603Z,7.30
2023-05-12T06:27:35.051Z,6.45
2023-05-12T06:30:36.663Z,4.47
2023-05-12T06:33:38.131Z,5.97
2023-05-12T06:36:39.826Z,7.07
2023-05-12T06:39:41.430Z,6.63
2023-05-12T06:42:43.372Z,7.18
2023-05-12T06:45:45.041Z,5.65
2023-05-12T06:48:46.577Z,7.97
2023-05-12T06:51:48.127Z,5.75
2023-05-12T06:54:50.351Z,4.70
2023-05-12T06:57:55.500Z,4.90
2023-05-12T07:00:57.504Z,4.90
2023-05-12T07:03:59.894Z,10.90
2023-05-12T07:07:01.436Z,7.13
2023-05-12T07:10:02.858Z,5.95
2023-05-12T07:13:04.517Z,7.70
2023-05-12T07:16:06.291Z,6.82
2023-05-12T07:19:09.572Z,7.68
2023-05-12T07:25:13.078Z,5.05
2023-05-12T07:28:15.262Z,5.18
2023-05-12T07:31:17.068Z,6.32
2023-05-12T07:34:18.844Z,6.00
2023-05-12T07:37:20.367Z,6.10
2023-05-12T07:40:22.013Z,6.68
2023-05-12T07:43:23.406Z,5.22
2023-05-12T07:46:25.117Z,7.18
2023-05-12T07:49:26.642Z,4.70
2023-05-12T07:52:28.040Z,6.28
2023-05-12T07:55:29.847Z,4.97
2023-05-12T07:58:31.236Z,6.63
2023-05-12T08:01:32.721Z,3.92
2023-05-12T08:04:34.232Z,4.53
2023-05-12T08:07:36.969Z,4.47
2023-05-12T08:10:38.377Z,4.00
2023-05-12T08:13:39.829Z,3.05
2023-05-12T08:16:42.482Z,4.07
2023-05-12T08:19:43.952Z,3.10
2023-05-12T08:22:47.689Z,3.05
2023-05-12T08:25:49.303Z,4.90
2023-05-12T08:28:50.881Z,2.85
2023-05-12T08:31:52.458Z,4.40
2023-05-12T08:34:54.370Z,3.60
2023-05-12T08:37:57.192Z,3.30
2023-05-12T08:41:22.905Z,2.25
2023-05-12T08:44:25.307Z,2.55
2023-05-12T08:47:27.595Z,2.73
2023-05-12T08:50:31.415Z,2.63
2023-05-12T08:53:35.323Z,2.53
2023-05-12T08:59:47.089Z,2.28
2023-05-12T09:02:54.041Z,1.88
2023-05-12T09:05:57.997Z,3.17
2023-05-12T09:12:02.887Z,2.47
2023-05-12T09:18:11.901Z,2.30
2023-05-12T09:21:13.767Z,2.55
2023-05-12T09:24:15.781Z,2.15
2023-05-12T09:27:24.385Z,2.78
2023-05-12T09:30:31.457Z,2.40
2023-05-12T09:33:34.465Z,2.00
2023-05-12T09:36:36.677Z,3.45
2023-05-12T09:39:38.156Z,2.83
2023-05-12T09:42:42.190Z,4.53
2023-05-12T09:45:44.286Z,1.88
2023-05-12T09:48:48.782Z,2.13
2023-05-12T09:51:56.803Z,2.00
2023-05-12T09:55:13.820Z,3.30
2023-05-12T09:58:18.186Z,3.70
2023-05-12T10:01:23.689Z,1.98
2023-05-12T10:04:28.479Z,1.27
2023-05-12T10:07:30.569Z,1.23
2023-05-12T10:10:33.626Z,1.98
2023-05-12T10:13:35.308Z,1.48
2023-05-12T10:16:37.047Z,2.97
2023-05-12T10:19:41.335Z,1.13
2023-05-12T10:22:44.608Z,1.38
2023-05-12T10:28:48.675Z,1.83
2023-05-12T10:31:50.623Z,2.55
2023-05-12T10:34:52.381Z,1.58
2023-05-12T10:37:53.928Z,1.52
2023-05-12T10:41:01.797Z,1.63
2023-05-12T10:44:03.262Z,1.63
2023-05-12T10:47:16.063Z,1.50
2023-05-12T10:50:28.116Z,1.65
2023-05-12T10:53:47.734Z,1.13
2023-05-12T10:56:52.449Z,1.33
2023-05-12T11:00:03.562Z,1.48
2023-05-12T11:03:14.460Z,2.33
2023-05-12T11:06:19.576Z,1.45
2023-05-12T11:09:21.843Z,1.40
2023-05-12T11:12:24.385Z,1.67
2023-05-12T11:15:27.291Z,3.77
2023-05-12T11:18:28.745Z,3.25
2023-05-12T11:21:32.246Z,1.85
2023-05-12T11:24:34.068Z,1.90
2023-05-12T11:27:35.865Z,1.90
2023-05-12T11:30:37.300Z,1.70
2023-05-12T11:33:38.788Z,3.53
2023-05-12T11:36:42.461Z,2.78
2023-05-12T11:39:43.975Z,2.70
2023-05-12T11:42:48.672Z,2.00
2023-05-12T11:45:50.607Z,3.70
2023-05-12T11:48:59.702Z,2.30
2023-05-12T11:52:02.361Z,2.60
2023-05-12T11:55:06.013Z,2.17
2023-05-12T11:58:07.606Z,2.58
2023-05-12T12:01:11.746Z,1.88
2023-05-12T12:04:13.257Z,1.40
2023-05-12T12:07:24.939Z,2.58
2023-05-12T12:10:30.755Z,1.40
2023-05-12T12:13:38.199Z,1.88
2023-05-12T12:16:43.048Z,1.63
2023-05-12T12:19:44.540Z,1.63
2023-05-12T12:22:46.035Z,1.75
2023-05-12T12:25:47.498Z,1.50
2023-05-12T12:28:49.734Z,1.98
2023-05-12T12:31:51.448Z,1.45
2023-05-12T12:34:53.516Z,1.92
2023-05-12T12:37:55.368Z,2.33
2023-05-12T12:40:57.043Z,1.40
2023-05-12T12:43:59.292Z,1.33
2023-05-12T12:47:00.999Z,1.77
2023-05-12T12:50:03.391Z,1.70
2023-05-12T12:53:05.393Z,1.50
2023-05-12T12:56:07.155Z,2.30
2023-05-12T12:59:09.080Z,1.83
2023-05-12T13:02:10.792Z,2.67
2023-05-12T13:05:12.804Z,1.40
2023-05-12T13:08:14.555Z,1.52
2023-05-12T13:11:16.374Z,1.20
2023-05-12T13:14:17.824Z,1.67
2023-05-12T13:17:19.336Z,1.60
2023-05-12T13:20:21.045Z,2.13
2023-05-12T13:23:22.748Z,2.92
2023-05-12T13:26:24.234Z,1.92
2023-05-12T13:29:25.806Z,1.08
2023-05-12T13:32:27.347Z,0.85
2023-05-12T13:35:28.823Z,1.05
2023-05-12T13:38:30.944Z,0.70
2023-05-12T13:41:32.420Z,0.70
2023-05-12T13:44:33.934Z,1.20
2023-05-12T13:47:35.447Z,1.10
2023-05-12T13:50:37.113Z,1.00
2023-05-12T13:53:39.586Z,0.90
2023-05-12T13:56:48.984Z,1.30
2023-05-12T13:59:51.862Z,1.20
2023-05-12T14:02:53.396Z,1.13
2023-05-12T14:05:54.900Z,1.58
2023-05-12T14:08:56.825Z,1.25
2023-05-12T14:11:58.880Z,1.50
2023-05-12T14:15:15.826Z,2.35
2023-05-12T14:18:22.351Z,1.52
2023-05-12T14:21:24.116Z,2.38
2023-05-12T14:24:25.581Z,1.77
2023-05-12T14:27:26.993Z,1.70
2023-05-12T14:30:28.564Z,2.35
2023-05-12T14:33:31.385Z,2.22
2023-05-12T14:36:32.778Z,1.35
2023-05-12T14:39:34.191Z,2.78
2023-05-12T14:42:35.648Z,1.35
2023-05-12T14:45:37.116Z,1.35
2023-05-12T14:48:38.527Z,1.05
2023-05-12T14:51:40.511Z,1.70
2023-05-12T14:54:42.405Z,2.65
2023-05-12T14:57:45.025Z,2.50
2023-05-12T15:00:47.460Z,3.35
2023-05-12T15:03:49.666Z,3.28
2023-05-12T15:06:51.098Z,2.85
2023-05-12T15:09:52.591Z,2.25
2023-05-12T15:12:53.992Z,1.80
2023-05-12T15:15:56.765Z,1.83
2023-05-12T15:18:58.633Z,2.45
2023-05-12T15:22:00.930Z,1.77
2023-05-12T15:25:04.627Z,3.53
2023-05-12T15:28:06.337Z,2.55
2023-05-12T15:31:08.123Z,2.70
2023-05-12T15:34:10.243Z,2.40
2023-05-12T15:37:11.701Z,2.08
2023-05-12T15:40:13.592Z,2.85
2023-05-12T15:43:15.059Z,2.30
2023-05-12T15:46:16.570Z,3.63
2023-05-12T15:49:18.255Z,2.70
2023-05-12T15:52:19.765Z,2.90
2023-05-12T15:55:21.515Z,3.28
2023-05-12T15:58:23.299Z,3.33
2023-05-12T16:01:25.243Z,3.72
2023-05-12T16:04:29.916Z,2.75
2023-05-12T16:07:31.660Z,2.97
2023-05-12T16:10:33.253Z,2.58
2023-05-12T16:13:34.910Z,4.10
2023-05-12T16:16:37.433Z,3.30
2023-05-12T16:19:38.876Z,3.78
2023-05-12T16:22:40.270Z,2.72
2023-05-12T16:25:42.248Z,2.80
2023-05-12T16:28:43.860Z,4.20
2023-05-12T16:31:45.349Z,3.33
2023-05-12T16:34:46.895Z,3.05
2023-05-12T16:37:48.286Z,3.17
2023-05-12T16:40:50.165Z,3.17
2023-05-12T16:43:53.223Z,3.30
2023-05-12T16:46:54.779Z,3.30
2023-05-12T16:49:57.975Z,3.50
2023-05-12T16:56:01.101Z,3.10
2023-05-12T16:59:02.553Z,3.40
2023-05-12T17:02:04.416Z,3.53
2023-05-12T17:05:06.361Z,10.75
2023-05-12T17:08:07.776Z,3.10
2023-05-12T17:11:09.631Z,2.85
2023-05-12T17:14:11.190Z,3.70
2023-05-12T17:17:13.171Z,4.15
2023-05-12T17:20:14.710Z,3.10
2023-05-12T17:23:16.510Z,4.13
2023-05-12T17:26:17.891Z,3.97
2023-05-12T17:29:20.213Z,3.20
2023-05-12T17:32:21.994Z,2.50
2023-05-12T17:35:23.852Z,2.83
2023-05-12T17:38:26.113Z,2.70
2023-05-12T17:41:29.043Z,3.00
2023-05-12T17:44:30.757Z,3.38
2023-05-12T17:47:32.199Z,2.55
2023-05-12T17:50:33.692Z,1.98
2023-05-12T17:53:35.414Z,2.42
2023-05-12T17:56:37.519Z,2.67
2023-05-12T17:59:39.044Z,2.78
2023-05-12T18:02:41.075Z,2.50
2023-05-12T18:05:43.789Z,2.70
2023-05-12T18:08:46.478Z,2.35
2023-05-12T18:11:49.986Z,3.08
2023-05-12T18:14:52.649Z,2.85
2023-05-12T18:17:54.494Z,3.38
2023-05-12T18:20:55.974Z,3.00
2023-05-12T18:23:57.384Z,9.25
2023-05-12T18:26:58.793Z,3.13
2023-05-12T18:30:00.232Z,3.38
2023-05-12T18:33:01.689Z,3.35
2023-05-12T18:36:03.267Z,3.08
2023-05-12T18:39:06.310Z,2.85
2023-05-12T18:42:09.148Z,3.13
2023-05-12T18:45:11.120Z,2.58
2023-05-12T18:48:12.572Z,2.97
2023-05-12T18:51:13.955Z,3.13
2023-05-12T18:54:15.951Z,3.20
2023-05-12T18:57:17.424Z,3.55
2023-05-12T19:00:23.253Z,2.60
2023-05-12T19:03:24.712Z,2.55
2023-05-12T19:06:26.554Z,4.32
2023-05-12T19:09:28.023Z,3.40
2023-05-12T19:12:29.826Z,2.60
2023-05-12T19:15:31.320Z,2.78
2023-05-12T19:18:32.928Z,2.33
2023-05-12T19:21:34.690Z,2.95
2023-05-12T19:24:37.847Z,2.20
2023-05-12T19:27:39.603Z,3.25
2023-05-12T19:30:41.309Z,2.60
2023-05-12T19:33:42.784Z,3.58
2023-05-12T19:36:44.468Z,2.92
2023-05-12T19:39:46.269Z,2.35
2023-05-12T19:42:48.181Z,2.58
2023-05-12T19:45:49.787Z,2.30
2023-05-12T19:48:52.005Z,2.70
2023-05-12T19:51:53.618Z,2.05
2023-05-12T19:54:55.583Z,2.38
2023-05-12T19:57:57.050Z,2.08
2023-05-12T20:00:58.709Z,2.97
2023-05-12T20:04:00.390Z,2.97
2023-05-12T20:07:01.860Z,2.40
2023-05-12T20:10:04.631Z,2.03
2023-05-12T20:13:06.155Z,1.90
2023-05-12T20:16:07.768Z,2.80
2023-05-12T20:19:09.360Z,2.10
2023-05-12T20:22:10.964Z,1.92
2023-05-12T20:25:15.958Z,2.65
2023-05-12T20:28:17.512Z,1.75
2023-05-12T20:31:19.954Z,2.13
2023-05-12T20:34:21.817Z,1.70
2023-05-12T20:37:23.458Z,1.60
2023-05-12T20:40:24.989Z,2.00
2023-05-12T20:43:26.555Z,2.25
2023-05-12T20:46:28.263Z,2.95
2023-05-12T20:49:29.937Z,2.20
2023-05-12T20:52:33.530Z,2.35
2023-05-12T20:55:35.300Z,2.20
2023-05-12T20:58:36.907Z,1.77
2023-05-12T21:01:38.960Z,2.22
2023-05-12T21:04:40.552Z,1.92
2023-05-12T21:07:42.151Z,1.83
2023-05-12T21:10:43.915Z,1.60
2023-05-12T21:13:46.970Z,1.70
2023-05-12T21:16:48.536Z,1.70
2023-05-12T21:19:50.168Z,1.70
2023-05-12T21:22:51.720Z,1.60
2023-05-12T21:25:53.731Z,1.98
2023-05-12T21:28:55.210Z,2.13
2023-05-12T21:31:56.727Z,2.50
2023-05-12T21:34:58.284Z,2.13
2023-05-12T21:37:59.753Z,2.25
2023-05-12T21:41:01.294Z,1.65
2023-05-12T21:44:02.817Z,2.55
2023-05-12T21:47:07.449Z,2.63
2023-05-12T21:50:09.451Z,1.70
2023-05-12T21:53:10.903Z,1.90
2023-05-12T21:56:12.530Z,1.88
2023-05-12T21:59:13.967Z,1.77
2023-05-12T22:02:16.012Z,1.55
2023-05-12T22:05:17.462Z,1.85
2023-05-12T22:08:18.997Z,2.75
2023-05-12T22:11:21.462Z,3.40
2023-05-12T22:14:22.936Z,1.73
2023-05-12T22:17:24.317Z,2.67
2023-05-12T22:20:25.717Z,1.33
2023-05-12T22:23:27.230Z,2.45
2023-05-12T22:26:28.760Z,1.60
2023-05-12T22:29:30.319Z,2.90
2023-05-12T22:32:31.889Z,2.22
2023-05-12T22:35:33.341Z,1.73
2023-05-12T22:38:34.730Z,2.55
2023-05-12T22:41:36.377Z,1.80
2023-05-12T22:44:38.523Z,2.03
2023-05-12T22:47:40.013Z,1.50
2023-05-12T22:50:41.469Z,2.83
2023-05-12T22:53:42.900Z,3.05
2023-05-12T22:56:44.691Z,1.50
2023-05-12T22:59:46.085Z,2.15
2023-05-12T23:02:47.649Z,1.70
2023-05-12T23:05:49.099Z,1.50
2023-05-12T23:08:50.709Z,2.30
2023-05-12T23:11:52.105Z,2.30
2023-05-12T23:14:53.527Z,2.00
2023-05-12T23:17:55.020Z,3.40
2023-05-12T23:20:56.479Z,3.03
2023-05-12T23:23:57.922Z,2.72
2023-05-12T23:26:59.335Z,2.53
2023-05-12T23:30:01.272Z,2.05
2023-05-12T23:33:02.737Z,2.33
2023-05-12T23:36:04.576Z,3.67
2023-05-12T23:39:06.209Z,3.00
2023-05-12T23:42:07.775Z,2.50
2023-05-12T23:45:10.081Z,1.85
2023-05-12T23:48:11.543Z,1.95
2023-05-12T23:51:12.927Z,1.40
2023-05-12T23:54:14.421Z,3.03
2023-05-12T23:57:15.977Z,2.90
